sensor_id;sensor_type;location;lat;lon;timestamp;P1;durP1;ratioP1;P2;durP2;ratioP2
59756;SDS011;45631;51.962;5.974;2024-03-02T00:00:30;3.50;;;1.80;;
59756;SDS011;45631;51.962;5.974;2024-03-02T00:02:58;3.42;;;1.50;;
59756;SDS011;45631;51.962;5.974;2024-03-02T00:05:27;5.25;;;1.60;;
59756;SDS011;45631;51.962;5.974;2024-03-02T00:07:55;4.43;;;1.70;;
59756;SDS011;45631;51.962;5.974;2024-03-02T00:10:27;4.05;;;1.60;;
59756;SDS011;45631;51.962;5.974;2024-03-02T00:13:03;5.53;;;1.80;;
59756;SDS011;45631;51.962;5.974;2024-03-02T00:15:41;4.25;;;1.88;;
59756;SDS011;45631;51.962;5.974;2024-03-02T00:18:12;5.65;;;1.70;;
59756;SDS011;45631;51.962;5.974;2024-03-02T00:20:42;3.53;;;1.63;;
59756;SDS011;45631;51.962;5.974;2024-03-02T00:23:10;4.18;;;1.60;;
59756;SDS011;45631;51.962;5.974;2024-03-02T00:25:44;5.82;;;1.90;;
59756;SDS011;45631;51.962;5.974;2024-03-02T00:28:24;3.15;;;1.50;;
59756;SDS011;45631;51.962;5.974;2024-03-02T00:30:55;3.35;;;1.60;;
59756;SDS011;45631;51.962;5.974;2024-03-02T00:33:28;3.83;;;1.65;;
59756;SDS011;45631;51.962;5.974;2024-03-02T00:35:59;3.30;;;1.60;;
59756;SDS011;45631;51.962;5.974;2024-03-02T00:38:30;4.25;;;1.60;;
59756;SDS011;45631;51.962;5.974;2024-03-02T00:41:01;3.67;;;1.60;;
59756;SDS011;45631;51.962;5.974;2024-03-02T00:43:41;5.13;;;1.50;;
59756;SDS011;45631;51.962;5.974;2024-03-02T00:46:15;3.38;;;1.50;;
59756;SDS011;45631;51.962;5.974;2024-03-02T00:48:50;3.77;;;1.50;;
59756;SDS011;45631;51.962;5.974;2024-03-02T00:51:22;3.90;;;1.48;;
59756;SDS011;45631;51.962;5.974;2024-03-02T00:53:51;4.25;;;1.33;;
59756;SDS011;45631;51.962;5.974;2024-03-02T00:56:24;2.42;;;1.30;;
59756;SDS011;45631;51.962;5.974;2024-03-02T00:58:53;2.50;;;1.40;;
59756;SDS011;45631;51.962;5.974;2024-03-02T01:01:23;4.80;;;1.50;;
59756;SDS011;45631;51.962;5.974;2024-03-02T01:03:52;4.47;;;1.70;;
59756;SDS011;45631;51.962;5.974;2024-03-02T01:06:20;4.57;;;1.75;;
59756;SDS011;45631;51.962;5.974;2024-03-02T01:08:50;5.32;;;1.60;;
59756;SDS011;45631;51.962;5.974;2024-03-02T01:11:21;3.10;;;1.30;;
59756;SDS011;45631;51.962;5.974;2024-03-02T01:13:51;3.80;;;1.63;;
59756;SDS011;45631;51.962;5.974;2024-03-02T01:16:20;5.82;;;1.63;;
59756;SDS011;45631;51.962;5.974;2024-03-02T01:18:48;3.25;;;1.50;;
59756;SDS011;45631;51.962;5.974;2024-03-02T01:21:16;3.30;;;1.35;;
59756;SDS011;45631;51.962;5.974;2024-03-02T01:23:45;3.40;;;1.48;;
59756;SDS011;45631;51.962;5.974;2024-03-02T01:26:13;6.13;;;1.73;;
59756;SDS011;45631;51.962;5.974;2024-03-02T01:28:43;3.35;;;1.40;;
59756;SDS011;45631;51.962;5.974;2024-03-02T01:31:11;5.18;;;1.58;;
59756;SDS011;45631;51.962;5.974;2024-03-02T01:33:40;3.70;;;1.40;;
59756;SDS011;45631;51.962;5.974;2024-03-02T01:36:08;4.43;;;1.60;;
59756;SDS011;45631;51.962;5.974;2024-03-02T01:38:36;2.90;;;1.23;;
59756;SDS011;45631;51.962;5.974;2024-03-02T01:41:05;3.33;;;1.30;;
59756;SDS011;45631;51.962;5.974;2024-03-02T01:43:33;2.88;;;1.40;;
59756;SDS011;45631;51.962;5.974;2024-03-02T01:46:07;2.72;;;1.27;;
59756;SDS011;45631;51.962;5.974;2024-03-02T01:48:36;3.88;;;1.33;;
59756;SDS011;45631;51.962;5.974;2024-03-02T01:51:04;2.40;;;1.02;;
59756;SDS011;45631;51.962;5.974;2024-03-02T01:53:34;1.27;;;0.85;;
59756;SDS011;45631;51.962;5.974;2024-03-02T01:56:02;2.22;;;0.93;;
59756;SDS011;45631;51.962;5.974;2024-03-02T01:58:31;2.38;;;0.90;;
59756;SDS011;45631;51.962;5.974;2024-03-02T02:00:59;1.65;;;0.80;;
59756;SDS011;45631;51.962;5.974;2024-03-02T02:03:29;0.80;;;0.60;;
59756;SDS011;45631;51.962;5.974;2024-03-02T02:05:57;0.47;;;0.47;;
59756;SDS011;45631;51.962;5.974;2024-03-02T02:08:25;2.38;;;0.70;;
59756;SDS011;45631;51.962;5.974;2024-03-02T02:10:54;0.70;;;0.70;;
59756;SDS011;45631;51.962;5.974;2024-03-02T02:13:23;2.78;;;0.82;;
59756;SDS011;45631;51.962;5.974;2024-03-02T02:15:52;2.75;;;1.00;;
59756;SDS011;45631;51.962;5.974;2024-03-02T02:18:21;0.95;;;0.82;;
59756;SDS011;45631;51.962;5.974;2024-03-02T02:20:53;2.10;;;0.65;;
59756;SDS011;45631;51.962;5.974;2024-03-02T02:23:25;1.70;;;0.77;;
59756;SDS011;45631;51.962;5.974;2024-03-02T02:25:54;1.33;;;0.60;;
59756;SDS011;45631;51.962;5.974;2024-03-02T02:28:22;1.80;;;0.80;;
59756;SDS011;45631;51.962;5.974;2024-03-02T02:30:51;2.55;;;0.80;;
59756;SDS011;45631;51.962;5.974;2024-03-02T02:33:20;1.88;;;0.70;;
59756;SDS011;45631;51.962;5.974;2024-03-02T02:35:48;0.90;;;0.60;;
59756;SDS011;45631;51.962;5.974;2024-03-02T02:38:16;1.13;;;0.70;;
59756;SDS011;45631;51.962;5.974;2024-03-02T02:40:47;1.15;;;0.60;;
59756;SDS011;45631;51.962;5.974;2024-03-02T02:43:18;1.27;;;0.70;;
59756;SDS011;45631;51.962;5.974;2024-03-02T02:45:46;0.90;;;0.55;;
59756;SDS011;45631;51.962;5.974;2024-03-02T02:48:14;1.50;;;0.60;;
59756;SDS011;45631;51.962;5.974;2024-03-02T02:50:43;2.25;;;0.65;;
59756;SDS011;45631;51.962;5.974;2024-03-02T02:53:11;2.20;;;0.50;;
59756;SDS011;45631;51.962;5.974;2024-03-02T02:55:39;1.67;;;0.75;;
59756;SDS011;45631;51.962;5.974;2024-03-02T02:58:11;1.40;;;0.80;;
59756;SDS011;45631;51.962;5.974;2024-03-02T03:00:39;1.33;;;0.50;;
59756;SDS011;45631;51.962;5.974;2024-03-02T03:03:08;0.95;;;0.50;;
59756;SDS011;45631;51.962;5.974;2024-03-02T03:05:36;0.73;;;0.45;;
59756;SDS011;45631;51.962;5.974;2024-03-02T03:08:05;0.35;;;0.32;;
59756;SDS011;45631;51.962;5.974;2024-03-02T03:10:33;2.67;;;0.80;;
59756;SDS011;45631;51.962;5.974;2024-03-02T03:13:02;0.50;;;0.50;;
59756;SDS011;45631;51.962;5.974;2024-03-02T03:15:31;2.10;;;0.50;;
59756;SDS011;45631;51.962;5.974;2024-03-02T03:18:00;0.90;;;0.30;;
59756;SDS011;45631;51.962;5.974;2024-03-02T03:20:30;0.80;;;0.50;;
59756;SDS011;45631;51.962;5.974;2024-03-02T03:22:58;0.43;;;0.40;;
59756;SDS011;45631;51.962;5.974;2024-03-02T03:25:26;1.75;;;0.40;;
59756;SDS011;45631;51.962;5.974;2024-03-02T03:27:55;1.38;;;0.40;;
59756;SDS011;45631;51.962;5.974;2024-03-02T03:30:24;1.50;;;0.50;;
59756;SDS011;45631;51.962;5.974;2024-03-02T03:32:53;0.40;;;0.40;;
59756;SDS011;45631;51.962;5.974;2024-03-02T03:35:22;1.30;;;0.60;;
59756;SDS011;45631;51.962;5.974;2024-03-02T03:37:50;2.30;;;0.57;;
59756;SDS011;45631;51.962;5.974;2024-03-02T03:40:18;2.35;;;0.70;;
59756;SDS011;45631;51.962;5.974;2024-03-02T03:42:46;0.70;;;0.43;;
59756;SDS011;45631;51.962;5.974;2024-03-02T03:45:15;2.15;;;0.45;;
59756;SDS011;45631;51.962;5.974;2024-03-02T03:47:43;1.77;;;0.57;;
59756;SDS011;45631;51.962;5.974;2024-03-02T03:50:13;0.98;;;0.30;;
59756;SDS011;45631;51.962;5.974;2024-03-02T03:52:41;0.30;;;0.30;;
59756;SDS011;45631;51.962;5.974;2024-03-02T03:55:10;0.63;;;0.50;;
59756;SDS011;45631;51.962;5.974;2024-03-02T03:57:38;0.93;;;0.60;;
59756;SDS011;45631;51.962;5.974;2024-03-02T04:00:07;0.73;;;0.50;;
59756;SDS011;45631;51.962;5.974;2024-03-02T04:02:38;1.83;;;0.50;;
59756;SDS011;45631;51.962;5.974;2024-03-02T04:05:08;1.30;;;0.40;;
59756;SDS011;45631;51.962;5.974;2024-03-02T04:07:39;0.52;;;0.40;;
59756;SDS011;45631;51.962;5.974;2024-03-02T04:10:09;1.45;;;0.50;;
59756;SDS011;45631;51.962;5.974;2024-03-02T04:12:39;1.92;;;0.50;;
59756;SDS011;45631;51.962;5.974;2024-03-02T04:15:07;1.17;;;0.40;;
59756;SDS011;45631;51.962;5.974;2024-03-02T04:17:36;2.15;;;0.50;;
59756;SDS011;45631;51.962;5.974;2024-03-02T04:20:05;0.35;;;0.35;;
59756;SDS011;45631;51.962;5.974;2024-03-02T04:22:34;0.90;;;0.55;;
59756;SDS011;45631;51.962;5.974;2024-03-02T04:25:04;1.73;;;0.60;;
59756;SDS011;45631;51.962;5.974;2024-03-02T04:27:34;0.75;;;0.40;;
59756;SDS011;45631;51.962;5.974;2024-03-02T04:30:05;1.40;;;0.55;;
59756;SDS011;45631;51.962;5.974;2024-03-02T04:32:34;2.03;;;0.60;;
59756;SDS011;45631;51.962;5.974;2024-03-02T04:35:03;1.90;;;0.68;;
59756;SDS011;45631;51.962;5.974;2024-03-02T04:37:31;0.75;;;0.52;;
59756;SDS011;45631;51.962;5.974;2024-03-02T04:40:00;1.08;;;0.32;;
59756;SDS011;45631;51.962;5.974;2024-03-02T04:42:30;2.33;;;0.60;;
59756;SDS011;45631;51.962;5.974;2024-03-02T04:44:58;1.05;;;0.40;;
59756;SDS011;45631;51.962;5.974;2024-03-02T04:47:26;2.05;;;0.60;;
59756;SDS011;45631;51.962;5.974;2024-03-02T04:49:54;0.90;;;0.45;;
59756;SDS011;45631;51.962;5.974;2024-03-02T04:52:23;2.88;;;0.75;;
59756;SDS011;45631;51.962;5.974;2024-03-02T04:54:53;0.47;;;0.45;;
59756;SDS011;45631;51.962;5.974;2024-03-02T04:57:48;1.05;;;0.47;;
59756;SDS011;45631;51.962;5.974;2024-03-02T05:00:17;1.40;;;0.60;;
59756;SDS011;45631;51.962;5.974;2024-03-02T05:02:46;1.30;;;0.77;;
59756;SDS011;45631;51.962;5.974;2024-03-02T05:05:14;0.68;;;0.50;;
59756;SDS011;45631;51.962;5.974;2024-03-02T05:07:42;1.42;;;0.47;;
59756;SDS011;45631;51.962;5.974;2024-03-02T05:10:10;1.05;;;0.50;;
59756;SDS011;45631;51.962;5.974;2024-03-02T05:12:39;0.60;;;0.47;;
59756;SDS011;45631;51.962;5.974;2024-03-02T05:15:22;1.15;;;0.43;;
59756;SDS011;45631;51.962;5.974;2024-03-02T05:17:51;1.42;;;0.60;;
59756;SDS011;45631;51.962;5.974;2024-03-02T05:20:19;4.13;;;0.57;;
59756;SDS011;45631;51.962;5.974;2024-03-02T05:22:48;0.88;;;0.60;;
59756;SDS011;45631;51.962;5.974;2024-03-02T05:25:16;1.58;;;0.60;;
59756;SDS011;45631;51.962;5.974;2024-03-02T05:27:44;1.33;;;0.60;;
59756;SDS011;45631;51.962;5.974;2024-03-02T05:30:13;2.55;;;0.70;;
59756;SDS011;45631;51.962;5.974;2024-03-02T05:32:43;0.73;;;0.60;;
59756;SDS011;45631;51.962;5.974;2024-03-02T05:35:13;0.90;;;0.57;;
59756;SDS011;45631;51.962;5.974;2024-03-02T05:37:44;2.28;;;0.70;;
59756;SDS011;45631;51.962;5.974;2024-03-02T05:40:13;1.10;;;0.50;;
59756;SDS011;45631;51.962;5.974;2024-03-02T05:42:41;1.95;;;0.70;;
59756;SDS011;45631;51.962;5.974;2024-03-02T05:45:09;3.95;;;0.70;;
59756;SDS011;45631;51.962;5.974;2024-03-02T05:47:37;1.63;;;0.70;;
59756;SDS011;45631;51.962;5.974;2024-03-02T05:50:07;1.30;;;0.50;;
59756;SDS011;45631;51.962;5.974;2024-03-02T05:52:36;0.70;;;0.60;;
59756;SDS011;45631;51.962;5.974;2024-03-02T05:55:05;0.90;;;0.60;;
59756;SDS011;45631;51.962;5.974;2024-03-02T05:57:37;0.73;;;0.40;;
59756;SDS011;45631;51.962;5.974;2024-03-02T06:00:22;1.35;;;0.50;;
59756;SDS011;45631;51.962;5.974;2024-03-02T06:02:50;1.23;;;0.60;;
59756;SDS011;45631;51.962;5.974;2024-03-02T06:05:22;1.60;;;0.60;;
59756;SDS011;45631;51.962;5.974;2024-03-02T06:07:51;1.58;;;0.60;;
59756;SDS011;45631;51.962;5.974;2024-03-02T06:10:19;2.78;;;0.57;;
59756;SDS011;45631;51.962;5.974;2024-03-02T06:12:47;3.55;;;0.63;;
59756;SDS011;45631;51.962;5.974;2024-03-02T06:15:15;4.88;;;0.70;;
59756;SDS011;45631;51.962;5.974;2024-03-02T06:17:47;2.78;;;0.70;;
59756;SDS011;45631;51.962;5.974;2024-03-02T06:20:17;2.65;;;0.60;;
59756;SDS011;45631;51.962;5.974;2024-03-02T06:22:47;1.13;;;0.60;;
59756;SDS011;45631;51.962;5.974;2024-03-02T06:25:15;2.13;;;0.60;;
59756;SDS011;45631;51.962;5.974;2024-03-02T06:27:46;3.25;;;0.80;;
59756;SDS011;45631;51.962;5.974;2024-03-02T06:30:14;3.47;;;0.63;;
59756;SDS011;45631;51.962;5.974;2024-03-02T06:32:43;1.98;;;0.50;;
59756;SDS011;45631;51.962;5.974;2024-03-02T06:35:11;4.45;;;1.00;;
59756;SDS011;45631;51.962;5.974;2024-03-02T06:37:39;2.65;;;0.70;;
59756;SDS011;45631;51.962;5.974;2024-03-02T06:40:11;1.58;;;0.98;;
59756;SDS011;45631;51.962;5.974;2024-03-02T06:42:39;1.15;;;0.60;;
59756;SDS011;45631;51.962;5.974;2024-03-02T06:45:08;2.28;;;1.05;;
59756;SDS011;45631;51.962;5.974;2024-03-02T06:47:36;1.25;;;0.60;;
59756;SDS011;45631;51.962;5.974;2024-03-02T06:50:04;0.80;;;0.40;;
59756;SDS011;45631;51.962;5.974;2024-03-02T06:52:33;2.13;;;0.65;;
59756;SDS011;45631;51.962;5.974;2024-03-02T06:55:01;0.63;;;0.43;;
59756;SDS011;45631;51.962;5.974;2024-03-02T06:57:32;1.35;;;0.50;;
59756;SDS011;45631;51.962;5.974;2024-03-02T07:00:00;0.73;;;0.50;;
59756;SDS011;45631;51.962;5.974;2024-03-02T07:02:31;3.38;;;0.70;;
59756;SDS011;45631;51.962;5.974;2024-03-02T07:05:01;2.13;;;0.70;;
59756;SDS011;45631;51.962;5.974;2024-03-02T07:07:33;3.08;;;0.90;;
59756;SDS011;45631;51.962;5.974;2024-03-02T07:10:03;3.47;;;1.10;;
59756;SDS011;45631;51.962;5.974;2024-03-02T07:12:36;3.35;;;1.00;;
59756;SDS011;45631;51.962;5.974;2024-03-02T07:15:05;2.88;;;1.30;;
59756;SDS011;45631;51.962;5.974;2024-03-02T07:17:55;2.00;;;0.70;;
59756;SDS011;45631;51.962;5.974;2024-03-02T07:20:24;2.08;;;0.80;;
59756;SDS011;45631;51.962;5.974;2024-03-02T07:22:52;4.25;;;0.90;;
59756;SDS011;45631;51.962;5.974;2024-03-02T07:25:20;1.95;;;0.90;;
59756;SDS011;45631;51.962;5.974;2024-03-02T07:27:52;1.95;;;0.70;;
59756;SDS011;45631;51.962;5.974;2024-03-02T07:30:20;2.38;;;0.60;;
59756;SDS011;45631;51.962;5.974;2024-03-02T07:32:49;4.38;;;1.02;;
59756;SDS011;45631;51.962;5.974;2024-03-02T07:35:18;1.92;;;0.70;;
59756;SDS011;45631;51.962;5.974;2024-03-02T07:37:46;2.80;;;0.75;;
59756;SDS011;45631;51.962;5.974;2024-03-02T07:40:15;2.08;;;0.60;;
59756;SDS011;45631;51.962;5.974;2024-03-02T07:42:43;2.90;;;0.88;;
59756;SDS011;45631;51.962;5.974;2024-03-02T07:45:12;2.13;;;0.70;;
59756;SDS011;45631;51.962;5.974;2024-03-02T07:47:41;3.40;;;0.82;;
59756;SDS011;45631;51.962;5.974;2024-03-02T07:50:09;3.28;;;0.90;;
59756;SDS011;45631;51.962;5.974;2024-03-02T07:52:40;2.65;;;0.70;;
59756;SDS011;45631;51.962;5.974;2024-03-02T07:55:08;4.47;;;1.10;;
59756;SDS011;45631;51.962;5.974;2024-03-02T07:57:36;2.10;;;1.20;;
59756;SDS011;45631;51.962;5.974;2024-03-02T08:00:05;2.63;;;1.00;;
59756;SDS011;45631;51.962;5.974;2024-03-02T08:02:37;2.72;;;1.08;;
59756;SDS011;45631;51.962;5.974;2024-03-02T08:05:06;1.35;;;0.80;;
59756;SDS011;45631;51.962;5.974;2024-03-02T08:07:38;1.52;;;0.90;;
59756;SDS011;45631;51.962;5.974;2024-03-02T08:10:08;3.70;;;0.80;;
59756;SDS011;45631;51.962;5.974;2024-03-02T08:12:36;3.33;;;0.85;;
59756;SDS011;45631;51.962;5.974;2024-03-02T08:15:05;2.33;;;0.77;;
59756;SDS011;45631;51.962;5.974;2024-03-02T08:17:34;3.20;;;1.10;;
59756;SDS011;45631;51.962;5.974;2024-03-02T08:20:06;3.60;;;1.00;;
59756;SDS011;45631;51.962;5.974;2024-03-02T08:22:35;3.00;;;0.80;;
59756;SDS011;45631;51.962;5.974;2024-03-02T08:25:04;2.33;;;0.80;;
59756;SDS011;45631;51.962;5.974;2024-03-02T08:27:32;3.53;;;0.85;;
59756;SDS011;45631;51.962;5.974;2024-03-02T08:30:01;4.53;;;0.80;;
59756;SDS011;45631;51.962;5.974;2024-03-02T08:32:33;1.90;;;0.95;;
59756;SDS011;45631;51.962;5.974;2024-03-02T08:35:02;2.72;;;0.80;;
59756;SDS011;45631;51.962;5.974;2024-03-02T08:37:33;1.35;;;0.70;;
59756;SDS011;45631;51.962;5.974;2024-03-02T08:40:01;3.05;;;0.80;;
59756;SDS011;45631;51.962;5.974;2024-03-02T08:42:33;4.53;;;0.90;;
59756;SDS011;45631;51.962;5.974;2024-03-02T08:45:02;5.22;;;0.95;;
59756;SDS011;45631;51.962;5.974;2024-03-02T08:47:30;3.42;;;0.80;;
59756;SDS011;45631;51.962;5.974;2024-03-02T08:49:59;3.67;;;0.90;;
59756;SDS011;45631;51.962;5.974;2024-03-02T08:52:28;2.88;;;0.80;;
59756;SDS011;45631;51.962;5.974;2024-03-02T08:54:57;3.67;;;0.73;;
59756;SDS011;45631;51.962;5.974;2024-03-02T08:57:26;3.83;;;0.93;;
59756;SDS011;45631;51.962;5.974;2024-03-02T08:59:54;3.38;;;0.82;;
59756;SDS011;45631;51.962;5.974;2024-03-02T09:02:23;6.22;;;0.93;;
59756;SDS011;45631;51.962;5.974;2024-03-02T09:04:51;2.25;;;0.60;;
59756;SDS011;45631;51.962;5.974;2024-03-02T09:07:20;2.03;;;0.80;;
59756;SDS011;45631;51.962;5.974;2024-03-02T09:09:48;3.85;;;1.00;;
59756;SDS011;45631;51.962;5.974;2024-03-02T09:12:18;7.18;;;0.98;;
59756;SDS011;45631;51.962;5.974;2024-03-02T09:14:47;2.70;;;0.70;;
59756;SDS011;45631;51.962;5.974;2024-03-02T09:17:15;5.00;;;1.00;;
59756;SDS011;45631;51.962;5.974;2024-03-02T09:19:43;5.72;;;1.00;;
59756;SDS011;45631;51.962;5.974;2024-03-02T09:22:12;3.90;;;1.00;;
59756;SDS011;45631;51.962;5.974;2024-03-02T09:24:40;4.57;;;1.05;;
59756;SDS011;45631;51.962;5.974;2024-03-02T09:27:08;3.35;;;0.88;;
59756;SDS011;45631;51.962;5.974;2024-03-02T09:29:38;4.53;;;1.35;;
59756;SDS011;45631;51.962;5.974;2024-03-02T09:32:08;3.53;;;1.00;;
59756;SDS011;45631;51.962;5.974;2024-03-02T09:34:40;3.30;;;0.70;;
59756;SDS011;45631;51.962;5.974;2024-03-02T09:37:08;2.13;;;0.77;;
59756;SDS011;45631;51.962;5.974;2024-03-02T09:39:36;4.30;;;1.30;;
59756;SDS011;45631;51.962;5.974;2024-03-02T09:42:05;1.63;;;0.60;;
59756;SDS011;45631;51.962;5.974;2024-03-02T09:44:33;3.03;;;0.95;;
59756;SDS011;45631;51.962;5.974;2024-03-02T09:47:06;4.32;;;1.00;;
59756;SDS011;45631;51.962;5.974;2024-03-02T09:49:34;5.20;;;1.13;;
59756;SDS011;45631;51.962;5.974;2024-03-02T09:52:05;4.15;;;0.70;;
59756;SDS011;45631;51.962;5.974;2024-03-02T09:54:38;4.18;;;0.95;;
59756;SDS011;45631;51.962;5.974;2024-03-02T09:57:06;4.22;;;0.70;;
59756;SDS011;45631;51.962;5.974;2024-03-02T09:59:34;3.85;;;0.70;;
59756;SDS011;45631;51.962;5.974;2024-03-02T10:02:04;4.00;;;1.00;;
59756;SDS011;45631;51.962;5.974;2024-03-02T10:04:34;3.50;;;1.08;;
59756;SDS011;45631;51.962;5.974;2024-03-02T10:07:09;4.30;;;1.00;;
59756;SDS011;45631;51.962;5.974;2024-03-02T10:09:39;5.13;;;1.02;;
59756;SDS011;45631;51.962;5.974;2024-03-02T10:12:10;2.53;;;0.80;;
59756;SDS011;45631;51.962;5.974;2024-03-02T10:14:40;3.10;;;0.70;;
59756;SDS011;45631;51.962;5.974;2024-03-02T10:17:10;3.63;;;0.60;;
59756;SDS011;45631;51.962;5.974;2024-03-02T10:19:39;3.40;;;0.70;;
59756;SDS011;45631;51.962;5.974;2024-03-02T10:22:09;5.50;;;1.33;;
59756;SDS011;45631;51.962;5.974;2024-03-02T10:24:38;3.90;;;1.08;;
59756;SDS011;45631;51.962;5.974;2024-03-02T10:27:09;3.75;;;0.80;;
59756;SDS011;45631;51.962;5.974;2024-03-02T10:29:38;2.28;;;0.90;;
59756;SDS011;45631;51.962;5.974;2024-03-02T10:32:12;4.47;;;0.98;;
59756;SDS011;45631;51.962;5.974;2024-03-02T10:34:40;2.90;;;0.80;;
59756;SDS011;45631;51.962;5.974;2024-03-02T10:37:10;2.15;;;0.80;;
59756;SDS011;45631;51.962;5.974;2024-03-02T10:39:39;2.85;;;0.70;;
59756;SDS011;45631;51.962;5.974;2024-03-02T10:42:08;7.57;;;1.02;;
59756;SDS011;45631;51.962;5.974;2024-03-02T10:44:37;4.57;;;0.70;;
59756;SDS011;45631;51.962;5.974;2024-03-02T10:47:07;1.92;;;0.70;;
59756;SDS011;45631;51.962;5.974;2024-03-02T10:49:38;3.67;;;1.00;;
59756;SDS011;45631;51.962;5.974;2024-03-02T10:52:09;5.32;;;1.00;;
59756;SDS011;45631;51.962;5.974;2024-03-02T10:54:40;4.18;;;0.90;;
59756;SDS011;45631;51.962;5.974;2024-03-02T10:57:08;2.80;;;0.75;;
59756;SDS011;45631;51.962;5.974;2024-03-02T10:59:43;2.50;;;0.70;;
59756;SDS011;45631;51.962;5.974;2024-03-02T11:02:19;4.63;;;1.20;;
59756;SDS011;45631;51.962;5.974;2024-03-02T11:04:51;1.60;;;0.60;;
59756;SDS011;45631;51.962;5.974;2024-03-02T11:07:23;5.72;;;0.95;;
59756;SDS011;45631;51.962;5.974;2024-03-02T11:09:56;2.63;;;0.80;;
59756;SDS011;45631;51.962;5.974;2024-03-02T11:12:28;6.43;;;1.00;;
59756;SDS011;45631;51.962;5.974;2024-03-02T11:14:59;5.97;;;1.50;;
59756;SDS011;45631;51.962;5.974;2024-03-02T11:17:28;3.60;;;0.80;;
59756;SDS011;45631;51.962;5.974;2024-03-02T11:19:58;4.97;;;0.70;;
59756;SDS011;45631;51.962;5.974;2024-03-02T11:22:27;3.03;;;0.80;;
59756;SDS011;45631;51.962;5.974;2024-03-02T11:24:56;4.40;;;0.90;;
59756;SDS011;45631;51.962;5.974;2024-03-02T11:33:23;2.28;;;0.65;;
59756;SDS011;45631;51.962;5.974;2024-03-02T11:35:56;5.68;;;1.05;;
59756;SDS011;45631;51.962;5.974;2024-03-02T11:38:31;3.47;;;0.80;;
59756;SDS011;45631;51.962;5.974;2024-03-02T11:41:00;2.20;;;0.70;;
59756;SDS011;45631;51.962;5.974;2024-03-02T11:43:29;3.75;;;1.17;;
59756;SDS011;45631;51.962;5.974;2024-03-02T11:46:00;4.07;;;0.90;;
59756;SDS011;45631;51.962;5.974;2024-03-02T11:48:31;3.95;;;0.90;;
59756;SDS011;45631;51.962;5.974;2024-03-02T11:51:01;4.40;;;1.23;;
59756;SDS011;45631;51.962;5.974;2024-03-02T11:53:29;3.30;;;0.80;;
59756;SDS011;45631;51.962;5.974;2024-03-02T11:56:01;4.07;;;0.70;;
59756;SDS011;45631;51.962;5.974;2024-03-02T11:58:32;2.58;;;0.75;;
59756;SDS011;45631;51.962;5.974;2024-03-02T12:01:04;2.20;;;0.70;;
59756;SDS011;45631;51.962;5.974;2024-03-02T12:03:32;5.47;;;1.10;;
59756;SDS011;45631;51.962;5.974;2024-03-02T12:06:04;4.63;;;0.80;;
59756;SDS011;45631;51.962;5.974;2024-03-02T12:08:33;3.80;;;0.73;;
59756;SDS011;45631;51.962;5.974;2024-03-02T12:11:02;3.50;;;0.82;;
59756;SDS011;45631;51.962;5.974;2024-03-02T12:13:31;2.95;;;0.88;;
59756;SDS011;45631;51.962;5.974;2024-03-02T12:16:03;3.88;;;1.08;;
59756;SDS011;45631;51.962;5.974;2024-03-02T12:18:32;3.38;;;0.85;;
59756;SDS011;45631;51.962;5.974;2024-03-02T12:21:04;3.33;;;0.80;;
59756;SDS011;45631;51.962;5.974;2024-03-02T12:23:35;3.60;;;0.90;;
59756;SDS011;45631;51.962;5.974;2024-03-02T12:26:03;2.03;;;0.65;;
59756;SDS011;45631;51.962;5.974;2024-03-02T12:28:32;3.75;;;0.80;;
59756;SDS011;45631;51.962;5.974;2024-03-02T12:31:01;3.47;;;1.00;;
59756;SDS011;45631;51.962;5.974;2024-03-02T12:33:29;3.92;;;0.80;;
59756;SDS011;45631;51.962;5.974;2024-03-02T12:35:58;2.45;;;0.65;;
59756;SDS011;45631;51.962;5.974;2024-03-02T12:38:27;2.88;;;0.80;;
59756;SDS011;45631;51.962;5.974;2024-03-02T12:40:58;4.35;;;0.98;;
59756;SDS011;45631;51.962;5.974;2024-03-02T12:43:29;2.05;;;0.50;;
59756;SDS011;45631;51.962;5.974;2024-03-02T12:45:58;2.55;;;0.70;;
59756;SDS011;45631;51.962;5.974;2024-03-02T12:48:26;2.45;;;0.70;;
59756;SDS011;45631;51.962;5.974;2024-03-02T12:50:54;2.30;;;0.80;;
59756;SDS011;45631;51.962;5.974;2024-03-02T12:53:23;2.72;;;0.90;;
59756;SDS011;45631;51.962;5.974;2024-03-02T12:55:52;2.15;;;0.90;;
59756;SDS011;45631;51.962;5.974;2024-03-02T12:58:22;2.15;;;0.85;;
59756;SDS011;45631;51.962;5.974;2024-03-02T13:00:51;3.90;;;0.98;;
59756;SDS011;45631;51.962;5.974;2024-03-02T13:03:34;3.70;;;1.20;;
59756;SDS011;45631;51.962;5.974;2024-03-02T13:06:04;2.85;;;0.98;;
59756;SDS011;45631;51.962;5.974;2024-03-02T13:08:33;3.83;;;1.20;;
59756;SDS011;45631;51.962;5.974;2024-03-02T13:11:03;5.65;;;1.35;;
59756;SDS011;45631;51.962;5.974;2024-03-02T13:13:33;4.00;;;1.27;;
59756;SDS011;45631;51.962;5.974;2024-03-02T13:16:07;2.67;;;1.20;;
59756;SDS011;45631;51.962;5.974;2024-03-02T13:18:36;3.67;;;1.40;;
59756;SDS011;45631;51.962;5.974;2024-03-02T13:21:07;3.30;;;1.40;;
59756;SDS011;45631;51.962;5.974;2024-03-02T13:23:35;2.30;;;1.00;;
59756;SDS011;45631;51.962;5.974;2024-03-02T13:26:04;4.63;;;1.10;;
59756;SDS011;45631;51.962;5.974;2024-03-02T13:28:34;2.83;;;1.00;;
59756;SDS011;45631;51.962;5.974;2024-03-02T13:31:02;4.03;;;1.00;;
59756;SDS011;45631;51.962;5.974;2024-03-02T13:33:31;1.63;;;0.82;;
59756;SDS011;45631;51.962;5.974;2024-03-02T13:35:59;3.47;;;1.02;;
59756;SDS011;45631;51.962;5.974;2024-03-02T13:38:29;4.20;;;1.05;;
59756;SDS011;45631;51.962;5.974;2024-03-02T13:40:57;2.92;;;1.00;;
59756;SDS011;45631;51.962;5.974;2024-03-02T13:43:28;2.72;;;1.00;;
59756;SDS011;45631;51.962;5.974;2024-03-02T13:45:58;3.28;;;1.30;;
59756;SDS011;45631;51.962;5.974;2024-03-02T13:48:27;4.72;;;1.05;;
59756;SDS011;45631;51.962;5.974;2024-03-02T13:50:55;4.78;;;1.25;;
59756;SDS011;45631;51.962;5.974;2024-03-02T13:53:25;3.28;;;1.10;;
59756;SDS011;45631;51.962;5.974;2024-03-02T13:55:54;3.65;;;1.02;;
59756;SDS011;45631;51.962;5.974;2024-03-02T13:58:22;3.45;;;0.90;;
59756;SDS011;45631;51.962;5.974;2024-03-02T14:00:52;3.65;;;0.95;;
59756;SDS011;45631;51.962;5.974;2024-03-02T14:03:20;4.22;;;1.10;;
59756;SDS011;45631;51.962;5.974;2024-03-02T14:05:49;5.40;;;1.00;;
59756;SDS011;45631;51.962;5.974;2024-03-02T14:08:21;3.15;;;1.15;;
59756;SDS011;45631;51.962;5.974;2024-03-02T14:10:50;5.50;;;1.30;;
59756;SDS011;45631;51.962;5.974;2024-03-02T14:13:18;4.47;;;0.98;;
59756;SDS011;45631;51.962;5.974;2024-03-02T14:15:46;2.70;;;0.85;;
59756;SDS011;45631;51.962;5.974;2024-03-02T14:18:16;3.10;;;0.90;;
59756;SDS011;45631;51.962;5.974;2024-03-02T14:20:44;5.20;;;1.02;;
59756;SDS011;45631;51.962;5.974;2024-03-02T14:23:18;3.88;;;0.93;;
59756;SDS011;45631;51.962;5.974;2024-03-02T14:25:47;2.70;;;1.00;;
59756;SDS011;45631;51.962;5.974;2024-03-02T14:28:15;3.83;;;0.70;;
59756;SDS011;45631;51.962;5.974;2024-03-02T14:31:04;2.22;;;0.57;;
59756;SDS011;45631;51.962;5.974;2024-03-02T14:33:34;4.13;;;1.00;;
59756;SDS011;45631;51.962;5.974;2024-03-02T14:36:03;3.78;;;0.98;;
59756;SDS011;45631;51.962;5.974;2024-03-02T14:38:32;3.35;;;0.82;;
59756;SDS011;45631;51.962;5.974;2024-03-02T14:41:00;2.88;;;0.70;;
59756;SDS011;45631;51.962;5.974;2024-03-02T14:43:29;3.47;;;1.02;;
59756;SDS011;45631;51.962;5.974;2024-03-02T14:45:58;2.42;;;0.90;;
59756;SDS011;45631;51.962;5.974;2024-03-02T14:48:27;2.50;;;0.93;;
59756;SDS011;45631;51.962;5.974;2024-03-02T14:50:56;4.55;;;1.10;;
59756;SDS011;45631;51.962;5.974;2024-03-02T14:53:25;4.43;;;1.10;;
59756;SDS011;45631;51.962;5.974;2024-03-02T14:55:53;4.22;;;1.00;;
59756;SDS011;45631;51.962;5.974;2024-03-02T14:58:21;4.28;;;1.27;;
59756;SDS011;45631;51.962;5.974;2024-03-02T15:00:49;4.03;;;1.00;;
59756;SDS011;45631;51.962;5.974;2024-03-02T15:03:18;2.30;;;0.95;;
59756;SDS011;45631;51.962;5.974;2024-03-02T15:05:46;4.90;;;1.15;;
59756;SDS011;45631;51.962;5.974;2024-03-02T15:08:19;1.35;;;0.73;;